createdAt,value
2022-10-25T00:01:54.828Z,1010.7
2022-10-25T00:06:54.195Z,1010.7
2022-10-25T00:11:54.234Z,1010.7
2022-10-25T00:16:54.363Z,1010.7
2022-10-25T00:21:54.361Z,1010.8
2022-10-25T00:26:54.451Z,1010.8
2022-10-25T00:31:54.484Z,1010.9
2022-10-25T00:41:54.628Z,1010.9
2022-10-25T00:46:54.656Z,1010.8
2022-10-25T00:51:54.674Z,1010.8
2022-10-25T00:56:54.747Z,1010.8
2022-10-25T01:06:54.775Z,1010.8
2022-10-25T01:11:56.824Z,1010.8
2022-10-25T01:16:54.832Z,1010.8
2022-10-25T01:21:54.863Z,1010.8
2022-10-25T01:26:54.902Z,1010.7
2022-10-25T01:31:54.857Z,1010.7
2022-10-25T01:36:54.877Z,1010.8
2022-10-25T01:41:54.883Z,1010.8
2022-10-25T01:46:54.937Z,1010.9
2022-10-25T01:51:54.985Z,1010.8
2022-10-25T01:56:54.997Z,1010.8
2022-10-25T02:01:55.035Z,1010.7
2022-10-25T02:06:55.085Z,1010.7
2022-10-25T02:11:55.139Z,1010.7
2022-10-25T02:16:55.567Z,1010.7
2022-10-25T02:21:55.172Z,1010.7
2022-10-25T02:26:55.183Z,1010.6
2022-10-25T02:31:57.178Z,1010.6
2022-10-25T02:36:55.429Z,1010.6
2022-10-25T02:41:55.191Z,1010.6
2022-10-25T02:46:55.256Z,1010.6
2022-10-25T02:51:55.299Z,1010.6
2022-10-25T02:56:55.343Z,1010.6
2022-10-25T03:06:55.496Z,1010.6
2022-10-25T03:11:55.504Z,1010.6
2022-10-25T03:16:55.593Z,1010.7
2022-10-25T03:21:55.671Z,1010.7
2022-10-25T03:26:55.745Z,1010.8
2022-10-25T03:31:55.738Z,1010.7
2022-10-25T03:36:57.842Z,1010.7
2022-10-25T03:41:55.846Z,1010.8
2022-10-25T03:46:55.990Z,1010.8
2022-10-25T03:51:58.859Z,1010.8
2022-10-25T03:56:56.103Z,1010.8
2022-10-25T04:01:56.183Z,1010.8
2022-10-25T04:06:56.311Z,1010.9
2022-10-25T04:11:56.227Z,1010.9
2022-10-25T04:21:58.392Z,1010.9
2022-10-25T04:26:56.600Z,1010.9
2022-10-25T04:31:56.491Z,1010.9
2022-10-25T04:36:58.588Z,1010.9
2022-10-25T04:41:56.687Z,1011.0
2022-10-25T04:46:56.672Z,1011.1
2022-10-25T04:51:56.691Z,1011.1
2022-10-25T04:56:56.757Z,1011.2
2022-10-25T05:01:56.848Z,1011.1
2022-10-25T05:06:56.869Z,1011.2
2022-10-25T05:11:56.965Z,1011.1
2022-10-25T05:16:57.009Z,1011.1
2022-10-25T05:22:01.606Z,1011.1
2022-10-25T05:26:57.157Z,1011.2
2022-10-25T05:31:57.197Z,1011.1
2022-10-25T05:36:57.315Z,1011.2
2022-10-25T05:41:59.967Z,1011.2
2022-10-25T05:46:57.395Z,1011.2
2022-10-25T05:51:57.474Z,1011.1
2022-10-25T05:56:57.575Z,1011.1
2022-10-25T06:01:59.727Z,1011.1
2022-10-25T06:06:57.749Z,1011.2
2022-10-25T06:11:57.766Z,1011.2
2022-10-25T06:16:57.822Z,1011.2
2022-10-25T06:21:57.901Z,1011.3
2022-10-25T06:26:57.967Z,1011.3
2022-10-25T06:31:58.054Z,1011.3
2022-10-25T06:36:58.073Z,1011.4
2022-10-25T06:42:00.121Z,1011.4
2022-10-25T06:47:16.566Z,1011.3
2022-10-25T06:52:00.207Z,1011.3
2022-10-25T06:56:58.235Z,1011.4
2022-10-25T07:01:58.388Z,1011.4
2022-10-25T07:06:58.323Z,1011.5
2022-10-25T07:11:58.462Z,1011.5
2022-10-25T07:16:58.340Z,1011.5
2022-10-25T07:21:58.364Z,1011.6
2022-10-25T07:31:58.361Z,1011.7
2022-10-25T07:36:58.378Z,1011.7
2022-10-25T07:41:58.364Z,1011.8
2022-10-25T07:47:00.433Z,1011.8
2022-10-25T07:51:58.418Z,1011.8
2022-10-25T07:56:58.479Z,1011.8
2022-10-25T08:01:58.531Z,1011.9
2022-10-25T08:06:58.579Z,1012.0
2022-10-25T08:11:58.622Z,1012.0
2022-10-25T08:16:58.617Z,1012.0
2022-10-25T08:21:58.643Z,1012.0
2022-10-25T08:26:58.674Z,1012.0
2022-10-25T08:31:58.752Z,1012.1
2022-10-25T08:36:58.836Z,1012.1
2022-10-25T08:42:01.427Z,1012.0
2022-10-25T08:46:59.028Z,1012.1
2022-10-25T08:51:59.172Z,1012.1
2022-10-25T08:57:14.736Z,1012.1
2022-10-25T09:01:59.534Z,1012.1
2022-10-25T09:06:59.467Z,1012.1
2022-10-25T09:11:59.638Z,1012.2
2022-10-25T09:16:59.779Z,1012.2
2022-10-25T09:21:59.969Z,1012.2
2022-10-25T09:27:00.290Z,1012.2
2022-10-25T09:32:00.242Z,1012.2
2022-10-25T09:37:00.732Z,1012.2
2022-10-25T09:42:02.631Z,1012.2
2022-10-25T09:47:00.897Z,1012.2
2022-10-25T09:52:01.010Z,1012.2
2022-10-25T09:57:01.215Z,1012.2
2022-10-25T10:02:03.545Z,1012.2
2022-10-25T10:07:01.621Z,1012.2
2022-10-25T10:12:01.865Z,1012.1
2022-10-25T10:17:02.113Z,1012.0
2022-10-25T10:22:04.432Z,1012.0
2022-10-25T10:27:02.562Z,1012.0
2022-10-25T10:32:02.824Z,1012.0
2022-10-25T10:37:03.118Z,1011.9
2022-10-25T10:42:03.491Z,1011.9
2022-10-25T10:47:03.636Z,1012.0
2022-10-25T10:52:03.881Z,1011.9
2022-10-25T10:57:04.154Z,1012.0
2022-10-25T11:02:04.486Z,1012.0
2022-10-25T11:07:08.609Z,1012.0
2022-10-25T11:17:05.249Z,1012.0
2022-10-25T11:22:05.406Z,1012.0
2022-10-25T11:27:05.767Z,1012.0
2022-10-25T11:32:06.014Z,1012.0
2022-10-25T11:37:06.291Z,1011.9
2022-10-25T11:42:06.539Z,1011.7
2022-10-25T11:47:06.787Z,1011.8
2022-10-25T11:52:07.099Z,1011.8
2022-10-25T11:57:07.235Z,1011.8
2022-10-25T12:02:07.437Z,1011.8
2022-10-25T12:07:07.806Z,1011.7
2022-10-25T12:12:08.001Z,1011.7
2022-10-25T12:17:08.235Z,1011.7
2022-10-25T12:22:08.467Z,1011.7
2022-10-25T12:27:08.701Z,1011.6
2022-10-25T12:32:08.980Z,1011.6
2022-10-25T12:37:11.206Z,1011.5
2022-10-25T12:42:09.434Z,1011.4
2022-10-25T12:47:13.710Z,1011.4
2022-10-25T12:52:11.962Z,1011.3
2022-10-25T12:57:10.233Z,1011.2
2022-10-25T13:02:10.469Z,1011.2
2022-10-25T13:07:10.895Z,1011.1
2022-10-25T13:12:11.311Z,1011.1
2022-10-25T13:17:11.354Z,1011.0
2022-10-25T13:27:11.889Z,1010.9
2022-10-25T13:32:12.723Z,1010.8
2022-10-25T13:37:12.473Z,1010.9
2022-10-25T13:42:12.759Z,1010.8
2022-10-25T13:47:13.064Z,1010.8
2022-10-25T13:52:13.298Z,1010.9
2022-10-25T13:57:15.650Z,1010.8
2022-10-25T14:02:14.023Z,1010.8
2022-10-25T14:07:14.171Z,1010.7
2022-10-25T14:12:15.593Z,1010.6
2022-10-25T14:17:14.695Z,1010.4
2022-10-25T14:22:14.978Z,1010.5
2022-10-25T14:32:17.497Z,1010.4
2022-10-25T14:37:15.738Z,1010.3
2022-10-25T14:42:16.086Z,1010.2
2022-10-25T14:47:16.287Z,1010.2
2022-10-25T14:52:16.546Z,1010.3
2022-10-25T14:57:16.803Z,1010.2
2022-10-25T15:02:17.086Z,1009.9
2022-10-25T15:12:17.589Z,1010.0
2022-10-25T15:17:17.820Z,1009.9
2022-10-25T15:22:18.063Z,1009.9
2022-10-25T15:27:18.286Z,1009.8
2022-10-25T15:32:18.454Z,1009.7
2022-10-25T15:37:18.691Z,1009.6
2022-10-25T15:42:18.920Z,1009.6
2022-10-25T15:47:19.142Z,1009.6
2022-10-25T15:52:19.354Z,1009.5
2022-10-25T15:57:19.571Z,1009.4
2022-10-25T16:02:19.856Z,1009.3
2022-10-25T16:07:20.038Z,1009.2
2022-10-25T16:12:24.777Z,1009.1
2022-10-25T16:17:20.470Z,1009.0
2022-10-25T16:27:20.953Z,1009.0
2022-10-25T16:32:21.233Z,1008.9
2022-10-25T16:42:21.564Z,1008.9
2022-10-25T16:47:21.800Z,1008.8
2022-10-25T16:52:21.966Z,1008.7
2022-10-25T16:57:22.138Z,1008.6
2022-10-25T17:02:22.535Z,1008.5
2022-10-25T17:07:22.611Z,1008.5
2022-10-25T17:12:24.826Z,1008.5
2022-10-25T17:22:23.315Z,1008.4
2022-10-25T17:27:23.449Z,1008.3
2022-10-25T17:37:23.978Z,1008.1
2022-10-25T17:42:24.050Z,1008.2
2022-10-25T17:47:28.290Z,1008.1
2022-10-25T18:02:26.940Z,1007.9
2022-10-25T18:07:25.031Z,1007.9
2022-10-25T18:12:25.264Z,1007.8
2022-10-25T18:17:25.514Z,1007.7
2022-10-25T18:22:25.699Z,1007.7
2022-10-25T18:27:25.945Z,1007.6
2022-10-25T18:32:32.131Z,1007.6
2022-10-25T18:37:26.377Z,1007.6
2022-10-25T18:42:26.604Z,1007.5
2022-10-25T18:47:28.857Z,1007.5
2022-10-25T18:52:26.970Z,1007.4
2022-10-25T18:57:27.210Z,1007.3
2022-10-25T19:02:27.667Z,1007.3
2022-10-25T19:07:27.622Z,1007.2
2022-10-25T19:12:29.915Z,1007.2
2022-10-25T19:17:28.001Z,1007.1
2022-10-25T19:22:28.246Z,1007.1
2022-10-25T19:27:28.362Z,1007.0
2022-10-25T19:32:28.573Z,1007.0
2022-10-25T19:37:28.744Z,1007.0
2022-10-25T19:42:28.946Z,1007.0
2022-10-25T19:47:29.103Z,1006.9
2022-10-25T19:52:29.404Z,1006.8
2022-10-25T19:57:29.521Z,1006.6
2022-10-25T20:02:29.824Z,1006.7
2022-10-25T20:12:30.130Z,1006.8
2022-10-25T20:17:30.302Z,1006.7
2022-10-25T20:22:30.494Z,1006.6
2022-10-25T20:27:30.784Z,1006.6
2022-10-25T20:32:30.871Z,1006.7
2022-10-25T20:37:31.080Z,1006.6
2022-10-25T20:42:31.312Z,1006.5
2022-10-25T20:47:31.494Z,1006.5
2022-10-25T20:52:34.493Z,1006.5
2022-10-25T20:57:31.913Z,1006.6
2022-10-25T21:02:32.170Z,1006.6
2022-10-25T21:07:32.296Z,1006.6
2022-10-25T21:17:32.675Z,1006.5
2022-10-25T21:22:32.900Z,1006.5
2022-10-25T21:32:33.311Z,1006.5
2022-10-25T21:42:33.708Z,1006.4
2022-10-25T21:47:33.964Z,1006.4
2022-10-25T21:52:34.130Z,1006.3
2022-10-25T21:57:36.887Z,1006.4
2022-10-25T22:02:34.719Z,1006.3
2022-10-25T22:07:35.528Z,1006.3
2022-10-25T22:12:34.978Z,1006.3
2022-10-25T22:17:35.228Z,1006.3
2022-10-25T22:22:35.424Z,1006.4
2022-10-25T22:27:35.642Z,1006.3
2022-10-25T22:32:35.825Z,1006.3
2022-10-25T22:37:36.011Z,1006.2
2022-10-25T22:42:36.184Z,1006.3
2022-10-25T22:47:36.411Z,1006.1
2022-10-25T22:52:36.640Z,1006.0
2022-10-25T22:57:36.779Z,1006.0
2022-10-25T23:02:37.011Z,1006.1
2022-10-25T23:07:39.189Z,1006.1
2022-10-25T23:12:37.358Z,1006.1
2022-10-25T23:17:37.598Z,1006.1
2022-10-25T23:22:37.801Z,1006.0
2022-10-25T23:27:39.124Z,1006.0
2022-10-25T23:32:38.247Z,1005.9
2022-10-25T23:37:38.463Z,1005.9
2022-10-25T23:47:38.905Z,1005.8
2022-10-25T23:52:39.154Z,1005.7
2022-10-25T23:57:39.355Z,1005.7
